sensor_id;sensor_type;location;lat;lon;timestamp;pressure;altitude;pressure_sealevel;temperature;humidity
3697;BME280;60662;48.810;8.872;2024-03-23T08:19:01;96041.75;;;6.16;100.00
3697;BME280;60662;48.810;8.872;2024-03-23T08:20:04;96027.66;;;6.24;98.23
3697;BME280;60662;48.810;8.872;2024-03-23T08:21:06;96030.34;;;6.66;97.45
3697;BME280;60662;48.810;8.872;2024-03-23T08:22:06;96031.00;;;6.49;95.32
3697;BME280;60662;48.810;8.872;2024-03-23T08:26:55;96047.91;;;6.60;96.51
3697;BME280;60662;48.810;8.872;2024-03-23T08:31:04;96061.94;;;7.00;93.83
3697;BME280;60662;48.810;8.872;2024-03-23T08:32:08;96062.00;;;6.98;93.88
3697;BME280;60662;48.810;8.872;2024-03-23T08:36:42;96106.66;;;7.07;91.49
3697;BME280;60662;48.810;8.872;2024-03-23T08:37:42;96093.53;;;7.75;87.22
3697;BME280;60662;48.810;8.872;2024-03-23T08:38:43;96089.59;;;8.47;85.31
3697;BME280;60662;48.810;8.872;2024-03-23T08:39:44;96087.03;;;8.25;84.56
3697;BME280;60662;48.810;8.872;2024-03-23T08:40:44;96090.22;;;8.90;82.67
3697;BME280;60662;48.810;8.872;2024-03-23T08:41:45;96094.97;;;8.99;81.85
3697;BME280;60662;48.810;8.872;2024-03-23T08:42:46;96096.41;;;8.49;82.02
3697;BME280;60662;48.810;8.872;2024-03-23T08:43:47;96089.59;;;9.03;81.18
3697;BME280;60662;48.810;8.872;2024-03-23T08:44:47;96096.59;;;9.02;79.50
3697;BME280;60662;48.810;8.872;2024-03-23T08:45:51;96094.75;;;9.76;78.04
3697;BME280;60662;48.810;8.872;2024-03-23T08:46:55;96097.69;;;9.87;77.25
3697;BME280;60662;48.810;8.872;2024-03-23T08:47:56;96101.63;;;9.05;79.36
3697;BME280;60662;48.810;8.872;2024-03-23T08:48:56;96102.50;;;8.09;80.03
3697;BME280;60662;48.810;8.872;2024-03-23T08:49:57;96115.38;;;7.91;83.64
3697;BME280;60662;48.810;8.872;2024-03-23T08:51:08;96112.56;;;7.55;84.17
3697;BME280;60662;48.810;8.872;2024-03-23T08:52:09;96108.47;;;7.27;84.55
3697;BME280;60662;48.810;8.872;2024-03-23T08:53:09;96107.22;;;7.15;86.07
3697;BME280;60662;48.810;8.872;2024-03-23T08:54:10;96116.25;;;7.05;86.87
3697;BME280;60662;48.810;8.872;2024-03-23T08:55:10;96113.25;;;7.15;86.11
3697;BME280;60662;48.810;8.872;2024-03-23T08:56:11;96116.38;;;7.24;86.30
3697;BME280;60662;48.810;8.872;2024-03-23T08:57:12;96120.00;;;7.42;85.74
3697;BME280;60662;48.810;8.872;2024-03-23T08:58:12;96121.53;;;7.25;85.55
3697;BME280;60662;48.810;8.872;2024-03-23T09:00:17;96136.97;;;7.28;85.52
3697;BME280;60662;48.810;8.872;2024-03-23T09:01:17;96132.19;;;7.40;85.25
3697;BME280;60662;48.810;8.872;2024-03-23T09:02:18;96134.81;;;8.43;84.29
3697;BME280;60662;48.810;8.872;2024-03-23T09:03:18;96133.81;;;8.45;82.43
3697;BME280;60662;48.810;8.872;2024-03-23T09:04:19;96149.69;;;7.99;81.39
3697;BME280;60662;48.810;8.872;2024-03-23T09:05:20;96140.31;;;7.75;81.70
3697;BME280;60662;48.810;8.872;2024-03-23T09:06:20;96146.09;;;7.61;82.40
3697;BME280;60662;48.810;8.872;2024-03-23T09:07:21;96146.59;;;7.26;80.41
3697;BME280;60662;48.810;8.872;2024-03-23T09:08:22;96157.50;;;7.34;81.66
3697;BME280;60662;48.810;8.872;2024-03-23T09:09:22;96158.00;;;7.22;81.41
3697;BME280;60662;48.810;8.872;2024-03-23T09:10:23;96151.38;;;7.15;80.87
3697;BME280;60662;48.810;8.872;2024-03-23T09:11:23;96161.00;;;7.33;81.20
3697;BME280;60662;48.810;8.872;2024-03-23T09:12:24;96163.41;;;7.60;79.68
3697;BME280;60662;48.810;8.872;2024-03-23T09:13:24;96156.00;;;7.51;76.62
3697;BME280;60662;48.810;8.872;2024-03-23T09:14:25;96159.59;;;7.26;73.94
3697;BME280;60662;48.810;8.872;2024-03-23T09:15:26;96154.69;;;7.41;75.37
3697;BME280;60662;48.810;8.872;2024-03-23T09:16:27;96149.56;;;8.03;73.01
3697;BME280;60662;48.810;8.872;2024-03-23T09:17:27;96139.59;;;8.73;72.43
3697;BME280;60662;48.810;8.872;2024-03-23T09:18:32;96152.69;;;8.90;71.63
3697;BME280;60662;48.810;8.872;2024-03-23T09:19:36;96138.34;;;8.81;70.15
3697;BME280;60662;48.810;8.872;2024-03-23T09:20:37;96154.94;;;8.98;71.50
3697;BME280;60662;48.810;8.872;2024-03-23T09:21:37;96153.56;;;8.51;70.72
3697;BME280;60662;48.810;8.872;2024-03-23T09:22:38;96159.84;;;8.45;71.24
3697;BME280;60662;48.810;8.872;2024-03-23T09:23:38;96157.88;;;8.11;70.63
3697;BME280;60662;48.810;8.872;2024-03-23T09:24:39;96168.28;;;8.11;69.99
3697;BME280;60662;48.810;8.872;2024-03-23T09:25:49;96162.13;;;7.71;70.24
3697;BME280;60662;48.810;8.872;2024-03-23T09:26:51;96176.44;;;8.43;70.74
3697;BME280;60662;48.810;8.872;2024-03-23T09:27:52;96179.13;;;8.21;69.73
3697;BME280;60662;48.810;8.872;2024-03-23T09:28:52;96172.66;;;7.67;69.26
3697;BME280;60662;48.810;8.872;2024-03-23T09:29:53;96173.47;;;8.31;68.64
3697;BME280;60662;48.810;8.872;2024-03-23T09:30:53;96170.97;;;7.87;68.60
3697;BME280;60662;48.810;8.872;2024-03-23T09:31:54;96177.19;;;7.62;70.09
3697;BME280;60662;48.810;8.872;2024-03-23T09:32:54;96174.19;;;7.51;69.89
3697;BME280;60662;48.810;8.872;2024-03-23T09:33:55;96165.81;;;8.49;69.08
3697;BME280;60662;48.810;8.872;2024-03-23T09:34:55;96167.97;;;9.17;67.66
3697;BME280;60662;48.810;8.872;2024-03-23T09:35:56;96163.34;;;9.78;66.25
3697;BME280;60662;48.810;8.872;2024-03-23T09:36:56;96173.84;;;10.47;65.73
3697;BME280;60662;48.810;8.872;2024-03-23T09:37:57;96168.06;;;10.91;64.03
3697;BME280;60662;48.810;8.872;2024-03-23T09:38:58;96165.09;;;10.48;64.76
3697;BME280;60662;48.810;8.872;2024-03-23T09:39:58;96164.56;;;10.23;64.57
3697;BME280;60662;48.810;8.872;2024-03-23T09:40:59;96171.47;;;11.25;64.91
3697;BME280;60662;48.810;8.872;2024-03-23T09:41:59;96161.84;;;11.25;61.71
3697;BME280;60662;48.810;8.872;2024-03-23T09:43:00;96161.00;;;11.25;64.14
3697;BME280;60662;48.810;8.872;2024-03-23T09:44:02;96154.22;;;10.89;64.25
3697;BME280;60662;48.810;8.872;2024-03-23T09:45:05;96156.38;;;10.13;65.16
3697;BME280;60662;48.810;8.872;2024-03-23T09:46:07;96168.03;;;9.35;65.99
3697;BME280;60662;48.810;8.872;2024-03-23T09:47:09;96150.28;;;8.66;65.91
3697;BME280;60662;48.810;8.872;2024-03-23T09:48:09;96159.72;;;8.88;66.25
3697;BME280;60662;48.810;8.872;2024-03-23T09:49:10;96155.16;;;9.49;65.90
3697;BME280;60662;48.810;8.872;2024-03-23T09:50:13;96162.25;;;9.09;67.20
3697;BME280;60662;48.810;8.872;2024-03-23T09:51:14;96166.69;;;8.88;68.61
3697;BME280;60662;48.810;8.872;2024-03-23T09:52:14;96169.88;;;8.94;67.83
3697;BME280;60662;48.810;8.872;2024-03-23T09:53:15;96165.63;;;9.30;67.93
3697;BME280;60662;48.810;8.872;2024-03-23T09:54:15;96162.28;;;9.45;68.42
3697;BME280;60662;48.810;8.872;2024-03-23T09:55:16;96150.59;;;9.72;67.01
3697;BME280;60662;48.810;8.872;2024-03-23T09:56:17;96160.38;;;9.49;67.80
3697;BME280;60662;48.810;8.872;2024-03-23T09:57:18;96161.25;;;9.11;68.67
3697;BME280;60662;48.810;8.872;2024-03-23T09:58:19;96137.81;;;8.73;68.14
3697;BME280;60662;48.810;8.872;2024-03-23T09:59:19;96156.56;;;8.81;67.73
3697;BME280;60662;48.810;8.872;2024-03-23T10:00:20;96160.59;;;8.28;68.56
3697;BME280;60662;48.810;8.872;2024-03-23T10:01:20;96153.03;;;8.43;67.89
3697;BME280;60662;48.810;8.872;2024-03-23T10:02:21;96151.47;;;8.78;67.18
3697;BME280;60662;48.810;8.872;2024-03-23T10:03:22;96149.50;;;9.58;66.45
3697;BME280;60662;48.810;8.872;2024-03-23T10:04:41;96150.16;;;10.67;63.58
3697;BME280;60662;48.810;8.872;2024-03-23T10:05:42;96155.78;;;11.09;62.62
3697;BME280;60662;48.810;8.872;2024-03-23T10:06:42;96156.19;;;11.49;61.48
3697;BME280;60662;48.810;8.872;2024-03-23T10:07:43;96151.03;;;12.24;60.49
3697;BME280;60662;48.810;8.872;2024-03-23T10:08:43;96153.84;;;11.75;61.44
3697;BME280;60662;48.810;8.872;2024-03-23T10:09:45;96150.19;;;10.99;60.94
3697;BME280;60662;48.810;8.872;2024-03-23T10:10:46;96156.75;;;10.74;61.15
3697;BME280;60662;48.810;8.872;2024-03-23T10:11:47;96147.53;;;10.16;62.15
3697;BME280;60662;48.810;8.872;2024-03-23T10:12:50;96154.78;;;9.20;64.75
3697;BME280;60662;48.810;8.872;2024-03-23T10:13:51;96153.97;;;8.81;67.03
3697;BME280;60662;48.810;8.872;2024-03-23T10:14:51;96155.31;;;8.30;67.00
3697;BME280;60662;48.810;8.872;2024-03-23T10:15:58;96156.44;;;8.24;67.57
3697;BME280;60662;48.810;8.872;2024-03-23T10:17:18;96150.00;;;8.33;68.17
3697;BME280;60662;48.810;8.872;2024-03-23T10:18:19;96148.47;;;8.69;69.93
3697;BME280;60662;48.810;8.872;2024-03-23T10:19:31;96145.53;;;8.76;68.65
3697;BME280;60662;48.810;8.872;2024-03-23T10:20:31;96151.34;;;8.42;67.43
3697;BME280;60662;48.810;8.872;2024-03-23T10:21:32;96155.66;;;8.22;68.29
3697;BME280;60662;48.810;8.872;2024-03-23T10:22:37;96162.97;;;9.12;67.55
3697;BME280;60662;48.810;8.872;2024-03-23T10:23:40;96152.97;;;9.03;66.27
3697;BME280;60662;48.810;8.872;2024-03-23T10:24:41;96147.66;;;8.27;66.89
3697;BME280;60662;48.810;8.872;2024-03-23T10:25:43;96154.69;;;8.04;69.58
3697;BME280;60662;48.810;8.872;2024-03-23T10:26:43;96161.03;;;7.76;71.62
3697;BME280;60662;48.810;8.872;2024-03-23T10:27:44;96170.97;;;7.22;73.62
3697;BME280;60662;48.810;8.872;2024-03-23T10:48:59;96239.28;;;3.88;95.64
3697;BME280;60662;48.810;8.872;2024-03-23T10:50:00;96237.69;;;3.83;94.76
3697;BME280;60662;48.810;8.872;2024-03-23T10:51:01;96221.25;;;4.20;96.31
3697;BME280;60662;48.810;8.872;2024-03-23T10:52:05;96211.00;;;4.50;95.84
3697;BME280;60662;48.810;8.872;2024-03-23T10:53:06;96206.66;;;5.12;96.79
3697;BME280;60662;48.810;8.872;2024-03-23T10:54:07;96210.50;;;5.27;95.50
3697;BME280;60662;48.810;8.872;2024-03-23T10:55:15;96216.38;;;5.03;92.33
3697;BME280;60662;48.810;8.872;2024-03-23T10:56:17;96224.19;;;5.02;93.08
3697;BME280;60662;48.810;8.872;2024-03-23T10:57:22;96221.44;;;5.06;92.67
3697;BME280;60662;48.810;8.872;2024-03-23T10:58:49;96219.06;;;5.00;92.99
3697;BME280;60662;48.810;8.872;2024-03-23T10:59:50;96200.78;;;5.05;93.71
3697;BME280;60662;48.810;8.872;2024-03-23T11:00:51;96209.75;;;5.78;90.14
3697;BME280;60662;48.810;8.872;2024-03-23T11:01:58;96203.97;;;7.64;85.94
3697;BME280;60662;48.810;8.872;2024-03-23T11:02:59;96197.84;;;8.70;81.41
3697;BME280;60662;48.810;8.872;2024-03-23T11:04:00;96196.44;;;9.39;78.17
3697;BME280;60662;48.810;8.872;2024-03-23T11:05:00;96194.69;;;9.94;76.17
3697;BME280;60662;48.810;8.872;2024-03-23T11:06:01;96191.81;;;10.18;73.14
3697;BME280;60662;48.810;8.872;2024-03-23T11:07:02;96182.88;;;10.04;72.13
3697;BME280;60662;48.810;8.872;2024-03-23T11:08:03;96187.19;;;9.70;73.89
3697;BME280;60662;48.810;8.872;2024-03-23T11:09:04;96189.78;;;9.70;74.99
3697;BME280;60662;48.810;8.872;2024-03-23T11:10:25;96187.28;;;10.56;73.65
3697;BME280;60662;48.810;8.872;2024-03-23T11:11:25;96190.03;;;10.53;71.84
3697;BME280;60662;48.810;8.872;2024-03-23T11:12:27;96188.06;;;11.40;71.44
3697;BME280;60662;48.810;8.872;2024-03-23T11:13:28;96193.78;;;11.31;70.17
3697;BME280;60662;48.810;8.872;2024-03-23T11:14:32;96185.59;;;11.05;67.60
3697;BME280;60662;48.810;8.872;2024-03-23T11:15:32;96195.31;;;10.69;68.63
3697;BME280;60662;48.810;8.872;2024-03-23T11:16:33;96184.09;;;11.33;68.78
3697;BME280;60662;48.810;8.872;2024-03-23T11:17:36;96191.16;;;11.15;69.54
3697;BME280;60662;48.810;8.872;2024-03-23T11:18:37;96192.13;;;10.80;70.57
3697;BME280;60662;48.810;8.872;2024-03-23T11:19:38;96188.69;;;10.80;69.51
3697;BME280;60662;48.810;8.872;2024-03-23T11:20:38;96189.22;;;10.69;70.00
3697;BME280;60662;48.810;8.872;2024-03-23T11:21:54;96187.31;;;10.39;69.67
3697;BME280;60662;48.810;8.872;2024-03-23T11:22:55;96182.28;;;10.52;70.60
3697;BME280;60662;48.810;8.872;2024-03-23T11:24:13;96178.28;;;11.11;69.24
3697;BME280;60662;48.810;8.872;2024-03-23T11:25:18;96184.53;;;9.89;69.38
3697;BME280;60662;48.810;8.872;2024-03-23T11:26:21;96183.03;;;9.29;72.33
3697;BME280;60662;48.810;8.872;2024-03-23T11:27:21;96181.97;;;8.76;72.70
3697;BME280;60662;48.810;8.872;2024-03-23T11:28:22;96179.91;;;8.43;73.92
3697;BME280;60662;48.810;8.872;2024-03-23T11:29:22;96185.31;;;7.97;69.43
3697;BME280;60662;48.810;8.872;2024-03-23T11:30:24;96199.22;;;7.74;73.84
3697;BME280;60662;48.810;8.872;2024-03-23T11:31:25;96189.28;;;7.63;74.27
3697;BME280;60662;48.810;8.872;2024-03-23T11:32:26;96199.56;;;8.09;74.51
3697;BME280;60662;48.810;8.872;2024-03-23T11:33:26;96190.88;;;7.88;73.72
3697;BME280;60662;48.810;8.872;2024-03-23T11:34:27;96195.91;;;7.71;74.40
3697;BME280;60662;48.810;8.872;2024-03-23T11:36:33;96185.03;;;7.83;69.94
3697;BME280;60662;48.810;8.872;2024-03-23T11:37:33;96183.22;;;8.06;71.89
3697;BME280;60662;48.810;8.872;2024-03-23T11:38:36;96182.00;;;8.14;71.53
3697;BME280;60662;48.810;8.872;2024-03-23T11:39:37;96192.47;;;7.92;71.24
3697;BME280;60662;48.810;8.872;2024-03-23T11:40:42;96178.28;;;7.34;71.06
3697;BME280;60662;48.810;8.872;2024-03-23T11:41:49;96193.50;;;7.22;72.60
3697;BME280;60662;48.810;8.872;2024-03-23T11:42:55;96186.38;;;7.27;73.28
3697;BME280;60662;48.810;8.872;2024-03-23T11:43:56;96191.50;;;7.28;72.81
3697;BME280;60662;48.810;8.872;2024-03-23T11:44:56;96187.06;;;7.32;73.24
3697;BME280;60662;48.810;8.872;2024-03-23T11:45:57;96191.94;;;7.17;72.31
3697;BME280;60662;48.810;8.872;2024-03-23T11:47:08;96180.94;;;7.11;72.15
3697;BME280;60662;48.810;8.872;2024-03-23T11:48:14;96186.31;;;7.28;72.11
3697;BME280;60662;48.810;8.872;2024-03-23T11:49:28;96177.50;;;7.32;70.73
3697;BME280;60662;48.810;8.872;2024-03-23T11:50:29;96179.09;;;7.37;70.13
3697;BME280;60662;48.810;8.872;2024-03-23T11:51:30;96172.38;;;9.15;68.23
3697;BME280;60662;48.810;8.872;2024-03-23T11:52:36;96180.28;;;9.69;64.21
3697;BME280;60662;48.810;8.872;2024-03-23T11:53:36;96164.28;;;9.94;61.50
3697;BME280;60662;48.810;8.872;2024-03-23T11:54:40;96181.13;;;9.14;62.32
3697;BME280;60662;48.810;8.872;2024-03-23T11:55:46;96180.94;;;8.39;63.31
3697;BME280;60662;48.810;8.872;2024-03-23T11:57:00;96182.00;;;8.14;66.28
3697;BME280;60662;48.810;8.872;2024-03-23T11:58:01;96182.97;;;7.91;66.71
3697;BME280;60662;48.810;8.872;2024-03-23T11:59:01;96175.69;;;7.57;67.00
3697;BME280;60662;48.810;8.872;2024-03-23T12:00:02;96193.72;;;7.39;67.32
3697;BME280;60662;48.810;8.872;2024-03-23T12:01:20;96180.75;;;7.60;67.93
3697;BME280;60662;48.810;8.872;2024-03-23T12:02:23;96170.00;;;7.90;66.39
3697;BME280;60662;48.810;8.872;2024-03-23T12:03:31;96172.88;;;8.25;68.07
3697;BME280;60662;48.810;8.872;2024-03-23T12:04:35;96147.41;;;7.92;67.20
3697;BME280;60662;48.810;8.872;2024-03-23T12:05:39;96167.03;;;7.78;67.29
3697;BME280;60662;48.810;8.872;2024-03-23T12:06:39;96156.09;;;7.70;67.95
3697;BME280;60662;48.810;8.872;2024-03-23T12:07:40;96165.69;;;7.68;68.28
3697;BME280;60662;48.810;8.872;2024-03-23T12:08:41;96165.78;;;7.44;68.59
3697;BME280;60662;48.810;8.872;2024-03-23T12:09:41;96162.28;;;7.45;69.71
3697;BME280;60662;48.810;8.872;2024-03-23T12:10:47;96164.94;;;7.22;68.98
3697;BME280;60662;48.810;8.872;2024-03-23T12:11:48;96173.91;;;7.37;70.41
3697;BME280;60662;48.810;8.872;2024-03-23T12:13:01;96157.69;;;7.52;70.36
3697;BME280;60662;48.810;8.872;2024-03-23T12:14:01;96172.00;;;7.40;69.95
3697;BME280;60662;48.810;8.872;2024-03-23T12:15:06;96148.44;;;7.45;70.52
3697;BME280;60662;48.810;8.872;2024-03-23T12:16:24;96159.69;;;7.45;69.91
3697;BME280;60662;48.810;8.872;2024-03-23T12:17:24;96151.94;;;7.44;70.90
3697;BME280;60662;48.810;8.872;2024-03-23T12:18:25;96154.78;;;7.38;70.35
3697;BME280;60662;48.810;8.872;2024-03-23T12:19:26;96162.72;;;7.34;70.18
3697;BME280;60662;48.810;8.872;2024-03-23T12:20:26;96156.50;;;7.16;70.15
3697;BME280;60662;48.810;8.872;2024-03-23T12:21:27;96166.72;;;7.64;69.55
3697;BME280;60662;48.810;8.872;2024-03-23T12:22:27;96154.84;;;7.36;70.58
3697;BME280;60662;48.810;8.872;2024-03-23T12:23:29;96155.03;;;7.54;71.09
3697;BME280;60662;48.810;8.872;2024-03-23T12:24:31;96148.44;;;7.45;70.94
3697;BME280;60662;48.810;8.872;2024-03-23T12:25:32;96149.88;;;7.30;69.56
3697;BME280;60662;48.810;8.872;2024-03-23T12:26:32;96159.22;;;7.35;69.92
3697;BME280;60662;48.810;8.872;2024-03-23T12:27:34;96160.22;;;7.54;70.28
3697;BME280;60662;48.810;8.872;2024-03-23T12:28:35;96157.44;;;7.36;71.91
3697;BME280;60662;48.810;8.872;2024-03-23T12:29:35;96147.06;;;7.79;69.33
3697;BME280;60662;48.810;8.872;2024-03-23T12:30:39;96145.78;;;8.51;66.54
3697;BME280;60662;48.810;8.872;2024-03-23T12:31:40;96147.53;;;8.30;66.72
3697;BME280;60662;48.810;8.872;2024-03-23T12:32:41;96156.56;;;8.81;67.92
3697;BME280;60662;48.810;8.872;2024-03-23T12:33:41;96144.31;;;9.76;65.71
3697;BME280;60662;48.810;8.872;2024-03-23T12:34:42;96145.38;;;10.42;64.13
3697;BME280;60662;48.810;8.872;2024-03-23T12:35:43;96157.69;;;9.51;65.88
3697;BME280;60662;48.810;8.872;2024-03-23T12:36:44;96148.97;;;8.96;65.40
3697;BME280;60662;48.810;8.872;2024-03-23T12:37:44;96144.16;;;8.68;66.54
3697;BME280;60662;48.810;8.872;2024-03-23T12:38:45;96140.94;;;8.21;66.33
3697;BME280;60662;48.810;8.872;2024-03-23T12:39:45;96154.88;;;7.79;66.22
3697;BME280;60662;48.810;8.872;2024-03-23T12:40:47;96160.34;;;7.50;66.68
3697;BME280;60662;48.810;8.872;2024-03-23T12:41:50;96153.22;;;7.56;68.56
3697;BME280;60662;48.810;8.872;2024-03-23T12:42:53;96153.75;;;7.64;69.29
3697;BME280;60662;48.810;8.872;2024-03-23T12:43:56;96159.00;;;8.65;66.95
3697;BME280;60662;48.810;8.872;2024-03-23T12:44:57;96158.88;;;8.69;66.50
3697;BME280;60662;48.810;8.872;2024-03-23T12:45:58;96158.00;;;8.28;67.25
3697;BME280;60662;48.810;8.872;2024-03-23T12:46:58;96156.00;;;8.14;67.93
3697;BME280;60662;48.810;8.872;2024-03-23T12:47:59;96156.63;;;8.20;68.27
3697;BME280;60662;48.810;8.872;2024-03-23T12:49:00;96157.00;;;7.90;66.79
3697;BME280;60662;48.810;8.872;2024-03-23T12:50:00;96154.94;;;7.98;66.80
3697;BME280;60662;48.810;8.872;2024-03-23T12:51:01;96154.88;;;8.99;66.10
3697;BME280;60662;48.810;8.872;2024-03-23T12:52:01;96145.78;;;8.89;66.63
3697;BME280;60662;48.810;8.872;2024-03-23T12:53:02;96139.41;;;9.33;65.98
3697;BME280;60662;48.810;8.872;2024-03-23T12:54:02;96145.03;;;9.43;64.89
3697;BME280;60662;48.810;8.872;2024-03-23T12:55:04;96151.03;;;9.45;64.16
3697;BME280;60662;48.810;8.872;2024-03-23T12:56:11;96133.69;;;8.29;62.98
3697;BME280;60662;48.810;8.872;2024-03-23T12:57:12;96153.78;;;8.05;63.79
3697;BME280;60662;48.810;8.872;2024-03-23T12:58:12;96142.38;;;7.87;64.45
3697;BME280;60662;48.810;8.872;2024-03-23T12:59:13;96144.28;;;8.04;65.21
3697;BME280;60662;48.810;8.872;2024-03-23T13:00:14;96147.06;;;7.99;65.79
3697;BME280;60662;48.810;8.872;2024-03-23T13:01:17;96158.19;;;7.82;65.38
3697;BME280;60662;48.810;8.872;2024-03-23T13:02:20;96152.91;;;7.63;64.25
3697;BME280;60662;48.810;8.872;2024-03-23T13:03:21;96156.66;;;7.99;65.05
3697;BME280;60662;48.810;8.872;2024-03-23T13:04:22;96144.47;;;7.99;63.29
3697;BME280;60662;48.810;8.872;2024-03-23T13:05:22;96146.94;;;7.82;60.90
3697;BME280;60662;48.810;8.872;2024-03-23T13:06:23;96136.06;;;8.34;61.70
3697;BME280;60662;48.810;8.872;2024-03-23T13:07:23;96139.69;;;8.71;61.44
3697;BME280;60662;48.810;8.872;2024-03-23T13:08:24;96140.03;;;8.82;61.10
3697;BME280;60662;48.810;8.872;2024-03-23T13:09:24;96139.44;;;8.57;62.62
3697;BME280;60662;48.810;8.872;2024-03-23T13:10:24;96138.69;;;8.13;62.99
3697;BME280;60662;48.810;8.872;2024-03-23T13:11:25;96156.00;;;7.94;63.83
3697;BME280;60662;48.810;8.872;2024-03-23T13:12:26;96141.22;;;8.36;62.58
3697;BME280;60662;48.810;8.872;2024-03-23T13:13:26;96133.22;;;8.80;61.68
3697;BME280;60662;48.810;8.872;2024-03-23T13:14:27;96116.97;;;9.11;61.06
3697;BME280;60662;48.810;8.872;2024-03-23T13:15:27;96116.06;;;9.49;60.36
3697;BME280;60662;48.810;8.872;2024-03-23T13:16:28;96105.28;;;9.74;60.00
3697;BME280;60662;48.810;8.872;2024-03-23T13:17:28;96108.72;;;9.57;59.37
3697;BME280;60662;48.810;8.872;2024-03-23T13:18:30;96107.88;;;9.92;60.02
3697;BME280;60662;48.810;8.872;2024-03-23T13:19:30;96103.50;;;9.92;60.19
3697;BME280;60662;48.810;8.872;2024-03-23T13:20:31;96099.03;;;9.24;60.68
3697;BME280;60662;48.810;8.872;2024-03-23T13:21:31;96102.03;;;9.52;61.38
3697;BME280;60662;48.810;8.872;2024-03-23T13:22:32;96098.84;;;9.64;59.57
3697;BME280;60662;48.810;8.872;2024-03-23T13:23:32;96083.28;;;9.62;59.42
3697;BME280;60662;48.810;8.872;2024-03-23T13:24:36;96088.84;;;9.55;59.81
3697;BME280;60662;48.810;8.872;2024-03-23T13:25:37;96089.03;;;9.69;60.65
3697;BME280;60662;48.810;8.872;2024-03-23T13:26:37;96086.03;;;9.59;59.51
3697;BME280;60662;48.810;8.872;2024-03-23T13:27:38;96081.94;;;9.36;60.58
3697;BME280;60662;48.810;8.872;2024-03-23T13:28:39;96089.06;;;10.03;60.50
3697;BME280;60662;48.810;8.872;2024-03-23T13:29:40;96100.75;;;10.47;59.71
3697;BME280;60662;48.810;8.872;2024-03-23T13:30:40;96087.31;;;10.54;58.62
3697;BME280;60662;48.810;8.872;2024-03-23T13:31:42;96096.44;;;10.12;59.25
3697;BME280;60662;48.810;8.872;2024-03-23T13:32:43;96100.06;;;9.92;59.65
3697;BME280;60662;48.810;8.872;2024-03-23T13:33:43;96103.13;;;9.65;60.09
3697;BME280;60662;48.810;8.872;2024-03-23T13:34:44;96114.34;;;9.30;61.50
3697;BME280;60662;48.810;8.872;2024-03-23T13:35:52;96106.84;;;9.05;60.81
3697;BME280;60662;48.810;8.872;2024-03-23T13:36:52;96097.16;;;8.71;61.47
3697;BME280;60662;48.810;8.872;2024-03-23T13:37:53;96113.00;;;8.66;62.78
3697;BME280;60662;48.810;8.872;2024-03-23T13:38:53;96112.31;;;8.62;64.21
3697;BME280;60662;48.810;8.872;2024-03-23T13:39:54;96115.66;;;8.64;65.48
3697;BME280;60662;48.810;8.872;2024-03-23T13:40:58;96110.97;;;8.33;64.56
3697;BME280;60662;48.810;8.872;2024-03-23T13:41:59;96133.63;;;8.10;64.63
3697;BME280;60662;48.810;8.872;2024-03-23T14:12:30;96180.16;;;3.04;99.49
3697;BME280;60662;48.810;8.872;2024-03-23T14:13:31;96183.25;;;3.18;99.30
3697;BME280;60662;48.810;8.872;2024-03-23T14:14:32;96176.38;;;3.55;98.37
3697;BME280;60662;48.810;8.872;2024-03-23T14:15:34;96174.25;;;4.38;94.77
3697;BME280;60662;48.810;8.872;2024-03-23T14:16:34;96162.34;;;4.93;92.48
3697;BME280;60662;48.810;8.872;2024-03-23T14:17:35;96158.97;;;5.19;91.31
3697;BME280;60662;48.810;8.872;2024-03-23T14:18:35;96141.56;;;5.78;90.48
3697;BME280;60662;48.810;8.872;2024-03-23T14:19:36;96145.59;;;6.12;90.86
3697;BME280;60662;48.810;8.872;2024-03-23T14:20:36;96142.38;;;6.30;88.79
3697;BME280;60662;48.810;8.872;2024-03-23T14:21:36;96141.28;;;6.36;87.39
3697;BME280;60662;48.810;8.872;2024-03-23T14:22:37;96131.00;;;6.58;88.09
3697;BME280;60662;48.810;8.872;2024-03-23T14:23:38;96127.88;;;6.72;85.98
3697;BME280;60662;48.810;8.872;2024-03-23T14:24:41;96125.25;;;6.96;84.45
3697;BME280;60662;48.810;8.872;2024-03-23T14:25:41;96113.31;;;7.14;83.93
3697;BME280;60662;48.810;8.872;2024-03-23T14:26:42;96119.53;;;7.32;83.38
3697;BME280;60662;48.810;8.872;2024-03-23T14:27:46;96102.66;;;7.42;83.64
3697;BME280;60662;48.810;8.872;2024-03-23T14:28:47;96102.34;;;7.71;83.49
3697;BME280;60662;48.810;8.872;2024-03-23T14:29:47;96105.81;;;7.92;82.13
3697;BME280;60662;48.810;8.872;2024-03-23T14:30:49;96105.88;;;7.70;80.46
3697;BME280;60662;48.810;8.872;2024-03-23T14:31:50;96117.25;;;7.88;81.98
3697;BME280;60662;48.810;8.872;2024-03-23T14:32:50;96122.13;;;7.75;80.60
3697;BME280;60662;48.810;8.872;2024-03-23T14:33:51;96117.66;;;7.78;80.67
3697;BME280;60662;48.810;8.872;2024-03-23T14:34:52;96123.34;;;7.66;82.25
3697;BME280;60662;48.810;8.872;2024-03-23T14:39:58;96119.69;;;5.60;83.20
3697;BME280;60662;48.810;8.872;2024-03-23T14:46:14;96156.38;;;5.46;84.62
3697;BME280;60662;48.810;8.872;2024-03-23T14:47:17;96148.78;;;5.13;82.52
3697;BME280;60662;48.810;8.872;2024-03-23T14:48:17;96162.22;;;4.97;85.73
3697;BME280;60662;48.810;8.872;2024-03-23T14:51:43;96141.03;;;4.24;88.76
3697;BME280;60662;48.810;8.872;2024-03-23T14:52:47;96149.91;;;4.14;89.89
3697;BME280;60662;48.810;8.872;2024-03-23T14:53:47;96151.25;;;4.28;88.59
3697;BME280;60662;48.810;8.872;2024-03-23T14:54:48;96158.81;;;4.35;89.08
3697;BME280;60662;48.810;8.872;2024-03-23T14:55:49;96157.25;;;4.30;88.64
3697;BME280;60662;48.810;8.872;2024-03-23T14:56:50;96158.66;;;4.71;88.81
3697;BME280;60662;48.810;8.872;2024-03-23T14:57:52;96172.81;;;4.58;88.16
3697;BME280;60662;48.810;8.872;2024-03-23T14:58:53;96152.91;;;5.20;88.33
3697;BME280;60662;48.810;8.872;2024-03-23T14:59:53;96161.72;;;5.14;87.50
3697;BME280;60662;48.810;8.872;2024-03-23T15:01:05;96163.94;;;5.25;86.41
3697;BME280;60662;48.810;8.872;2024-03-23T15:02:09;96155.34;;;5.78;86.72
3697;BME280;60662;48.810;8.872;2024-03-23T15:03:10;96149.09;;;5.84;83.46
3697;BME280;60662;48.810;8.872;2024-03-23T15:04:11;96156.69;;;6.41;84.62
3697;BME280;60662;48.810;8.872;2024-03-23T15:05:11;96155.34;;;6.30;83.31
3697;BME280;60662;48.810;8.872;2024-03-23T15:06:12;96148.56;;;6.97;85.24
3697;BME280;60662;48.810;8.872;2024-03-23T15:07:12;96149.28;;;7.23;84.60
3697;BME280;60662;48.810;8.872;2024-03-23T15:08:13;96140.88;;;6.94;81.87
3697;BME280;60662;48.810;8.872;2024-03-23T15:09:13;96141.81;;;7.15;80.76